createdAt,value
2018-08-24T00:01:16.200Z,20.80
2018-08-24T00:03:44.419Z,20.72
2018-08-24T00:06:12.636Z,20.92
2018-08-24T00:08:40.873Z,18.92
2018-08-24T00:11:09.112Z,18.85
2018-08-24T00:13:37.579Z,20.82
2018-08-24T00:16:06.064Z,19.45
2018-08-24T00:18:34.334Z,21.33
2018-08-24T00:21:02.592Z,20.77
2018-08-24T00:23:31.072Z,20.02
2018-08-24T00:25:59.299Z,19.15
2018-08-24T00:28:27.533Z,19.17
2018-08-24T00:30:55.788Z,20.35
2018-08-24T00:33:24.003Z,21.60
2018-08-24T00:35:52.255Z,21.37
2018-08-24T00:38:20.503Z,22.87
2018-08-24T00:40:52.989Z,23.40
2018-08-24T00:43:21.228Z,23.10
2018-08-24T00:45:49.456Z,24.32
2018-08-24T00:48:17.709Z,24.92
2018-08-24T00:50:45.959Z,24.52
2018-08-24T00:53:14.204Z,24.55
2018-08-24T00:55:42.468Z,25.35
2018-08-24T00:58:10.740Z,25.88
2018-08-24T01:00:42.925Z,25.68
2018-08-24T01:03:12.491Z,26.30
2018-08-24T01:05:40.859Z,26.40
2018-08-24T01:08:09.569Z,24.67
2018-08-24T01:10:38.086Z,25.55
2018-08-24T01:13:15.303Z,24.67
2018-08-24T01:15:56.896Z,25.62
2018-08-24T01:18:37.311Z,26.33
2018-08-24T01:21:05.581Z,25.92
2018-08-24T01:23:35.366Z,25.43
2018-08-24T01:26:04.919Z,29.98
2018-08-24T01:28:34.591Z,28.57
2018-08-24T01:31:09.538Z,27.95
2018-08-24T01:33:38.912Z,26.05
2018-08-24T01:36:08.141Z,27.13
2018-08-24T01:38:37.517Z,25.27
2018-08-24T01:41:05.837Z,12.85
2018-08-24T01:43:34.047Z,7.70
2018-08-24T01:46:07.712Z,4.97
2018-08-24T01:48:35.989Z,2.60
2018-08-24T01:51:04.213Z,2.58
2018-08-24T01:53:32.488Z,2.10
2018-08-24T01:56:00.738Z,2.25
2018-08-24T01:58:28.975Z,1.77
2018-08-24T02:00:57.266Z,1.50
2018-08-24T02:03:25.471Z,2.00
2018-08-24T02:05:58.117Z,1.80
2018-08-24T02:08:26.351Z,2.00
2018-08-24T02:10:54.559Z,1.75
2018-08-24T02:13:28.208Z,2.30
2018-08-24T02:15:56.444Z,1.90
2018-08-24T02:18:30.062Z,1.77
2018-08-24T02:21:03.699Z,2.30
2018-08-24T02:23:32.005Z,2.30
2018-08-24T02:26:00.246Z,2.92
2018-08-24T02:28:28.464Z,2.77
2018-08-24T02:30:56.705Z,2.67
2018-08-24T02:33:24.926Z,3.07
2018-08-24T02:35:53.124Z,2.98
2018-08-24T02:38:21.378Z,3.02
2018-08-24T02:40:49.606Z,2.50
2018-08-24T02:43:17.831Z,2.50
2018-08-24T02:45:46.996Z,2.75
2018-08-24T02:48:15.215Z,3.00
2018-08-24T02:50:43.441Z,2.62
2018-08-24T02:53:11.670Z,2.77
2018-08-24T02:55:39.895Z,2.50
2018-08-24T02:58:08.168Z,2.90
2018-08-24T03:00:36.413Z,2.75
2018-08-24T03:03:05.264Z,2.85
2018-08-24T03:05:33.884Z,3.05
2018-08-24T03:08:01.908Z,2.70
2018-08-24T03:10:30.180Z,2.98
2018-08-24T03:12:58.409Z,3.08
2018-08-24T03:15:26.644Z,3.50
2018-08-24T03:17:55.298Z,3.30
2018-08-24T03:20:24.606Z,3.12
2018-08-24T03:22:53.100Z,3.80
2018-08-24T03:25:21.336Z,3.55
2018-08-24T03:27:49.548Z,2.90
2018-08-24T03:30:17.811Z,3.37
2018-08-24T03:32:46.052Z,3.35
2018-08-24T03:35:14.260Z,3.05
2018-08-24T03:37:42.512Z,3.77
2018-08-24T03:40:10.736Z,3.62
2018-08-24T03:42:38.971Z,3.00
2018-08-24T03:45:07.232Z,3.70
2018-08-24T03:47:35.565Z,3.20
2018-08-24T03:50:03.887Z,3.12
2018-08-24T03:52:32.219Z,3.10
2018-08-24T03:55:00.524Z,3.47
2018-08-24T03:57:28.724Z,4.05
2018-08-24T03:59:56.944Z,2.98
2018-08-24T04:02:25.196Z,3.12
2018-08-24T04:04:53.552Z,3.30
2018-08-24T04:07:21.823Z,2.67
2018-08-24T04:09:50.051Z,3.30
2018-08-24T04:12:18.283Z,3.00
2018-08-24T04:14:46.569Z,3.22
2018-08-24T04:17:20.212Z,3.00
2018-08-24T04:19:48.508Z,3.60
2018-08-24T04:22:16.740Z,3.45
2018-08-24T04:24:44.977Z,3.77
2018-08-24T04:27:13.236Z,4.15
2018-08-24T04:29:41.487Z,4.83
2018-08-24T04:32:09.715Z,4.95
2018-08-24T04:34:37.977Z,5.35
2018-08-24T04:37:06.199Z,6.05
2018-08-24T04:39:34.444Z,5.75
2018-08-24T04:42:02.746Z,5.78
2018-08-24T04:44:31.080Z,4.97
2018-08-24T04:46:59.313Z,5.08
2018-08-24T04:49:27.560Z,4.95
2018-08-24T04:51:55.785Z,3.85
2018-08-24T04:54:24.032Z,4.60
2018-08-24T04:56:52.296Z,3.72
2018-08-24T04:59:20.555Z,4.10
2018-08-24T05:01:48.791Z,3.87
2018-08-24T05:04:17.061Z,3.70
2018-08-24T05:06:45.287Z,3.40
2018-08-24T05:09:13.512Z,4.17
2018-08-24T05:11:41.749Z,4.08
2018-08-24T05:14:10.753Z,4.10
2018-08-24T05:16:38.995Z,4.12
2018-08-24T05:19:07.271Z,4.40
2018-08-24T05:21:35.560Z,3.87
2018-08-24T05:24:03.840Z,3.90
2018-08-24T05:26:33.816Z,4.87
2018-08-24T05:29:02.089Z,4.58
2018-08-24T05:31:30.704Z,4.30
2018-08-24T05:33:59.160Z,4.35
2018-08-24T05:36:28.204Z,4.08
2018-08-24T05:38:56.461Z,4.30
2018-08-24T05:41:24.713Z,4.53
2018-08-24T05:43:52.941Z,4.33
2018-08-24T05:46:21.181Z,4.80
2018-08-24T05:48:49.561Z,4.47
2018-08-24T05:51:17.767Z,4.20
2018-08-24T05:53:46.047Z,4.92
2018-08-24T05:56:14.333Z,4.58
2018-08-24T05:58:49.335Z,4.30
2018-08-24T06:01:18.188Z,5.20
2018-08-24T06:03:46.428Z,5.35
2018-08-24T06:06:14.653Z,6.65
2018-08-24T06:08:42.976Z,5.85
2018-08-24T06:11:11.207Z,6.85
2018-08-24T06:13:39.431Z,5.95
2018-08-24T06:16:07.717Z,5.90
2018-08-24T06:18:35.984Z,6.72
2018-08-24T06:21:04.253Z,5.90
2018-08-24T06:23:32.549Z,6.55
2018-08-24T06:26:00.812Z,6.87
2018-08-24T06:28:29.072Z,7.00
2018-08-24T06:30:57.292Z,8.45
2018-08-24T06:33:25.541Z,6.78
2018-08-24T06:35:53.969Z,7.70
2018-08-24T06:38:22.267Z,7.95
2018-08-24T06:40:50.494Z,7.15
2018-08-24T06:43:18.692Z,7.92
2018-08-24T06:45:46.956Z,7.00
2018-08-24T06:48:15.162Z,7.75
2018-08-24T06:50:43.417Z,7.20
2018-08-24T06:53:11.772Z,8.03
2018-08-24T06:55:39.956Z,7.30
2018-08-24T06:58:08.240Z,8.23
2018-08-24T07:00:36.537Z,7.42
2018-08-24T07:03:04.791Z,7.50
2018-08-24T07:05:33.050Z,7.72
2018-08-24T07:08:02.336Z,7.50
2018-08-24T07:10:30.643Z,8.40
2018-08-24T07:12:59.017Z,7.60
2018-08-24T07:15:27.130Z,7.67
2018-08-24T07:18:00.352Z,7.70
2018-08-24T07:20:28.705Z,7.97
2018-08-24T07:22:56.948Z,8.05
2018-08-24T07:25:25.184Z,7.65
2018-08-24T07:27:53.584Z,8.15
2018-08-24T07:30:21.857Z,8.68
2018-08-24T07:32:50.120Z,8.98
2018-08-24T07:35:18.323Z,8.58
2018-08-24T07:42:39.032Z,9.03
2018-08-24T07:45:07.484Z,8.75
2018-08-24T07:47:35.743Z,9.65
2018-08-24T07:50:04.023Z,8.85
2018-08-24T07:52:32.568Z,9.65
2018-08-24T07:55:00.920Z,9.50
2018-08-24T07:57:29.183Z,9.40
2018-08-24T07:59:57.415Z,9.25
2018-08-24T08:02:31.134Z,9.15
2018-08-24T08:04:59.367Z,8.43
2018-08-24T08:07:27.607Z,9.28
2018-08-24T08:09:55.844Z,9.05
2018-08-24T08:12:24.094Z,9.15
2018-08-24T08:14:57.907Z,9.45
2018-08-24T08:17:26.172Z,9.55
2018-08-24T08:19:54.431Z,9.63
2018-08-24T08:22:22.640Z,9.13
2018-08-24T08:24:50.931Z,9.03
2018-08-24T08:27:19.144Z,9.18
2018-08-24T08:29:52.872Z,9.58
2018-08-24T08:32:21.091Z,9.53
2018-08-24T08:34:51.427Z,9.27
2018-08-24T08:37:20.724Z,9.75
2018-08-24T08:39:49.281Z,10.03
2018-08-24T08:42:17.528Z,9.78
2018-08-24T08:44:45.776Z,9.48
2018-08-24T08:47:14.196Z,9.90
2018-08-24T08:49:42.876Z,9.80
2018-08-24T08:52:11.983Z,9.43
2018-08-24T08:54:40.203Z,9.35
2018-08-24T08:57:08.460Z,9.20
2018-08-24T08:59:36.707Z,9.35
2018-08-24T09:02:05.192Z,8.63
2018-08-24T09:04:33.460Z,9.23
2018-08-24T09:07:01.729Z,9.03
2018-08-24T09:09:29.980Z,10.18
2018-08-24T09:11:58.189Z,8.98
2018-08-24T09:14:26.443Z,9.85
2018-08-24T09:16:54.652Z,8.88
2018-08-24T09:19:28.401Z,9.65
2018-08-24T09:22:02.110Z,9.50
2018-08-24T09:25:36.966Z,9.37
2018-08-24T09:28:39.242Z,9.38
2018-08-24T09:31:11.084Z,8.15
2018-08-24T09:33:39.284Z,9.10
2018-08-24T09:36:12.909Z,8.48
2018-08-24T09:38:41.136Z,7.40
2018-08-24T09:41:10.278Z,7.95
2018-08-24T09:43:44.042Z,7.08
2018-08-24T09:46:12.244Z,7.80
2018-08-24T09:48:46.007Z,7.67
2018-08-24T09:51:19.749Z,7.62
2018-08-24T09:53:53.372Z,6.95
2018-08-24T09:56:21.632Z,7.45
2018-08-24T09:58:49.860Z,6.97
2018-08-24T10:01:23.572Z,6.87
2018-08-24T10:03:57.236Z,6.83
2018-08-24T10:06:31.093Z,7.00
2018-08-24T10:08:59.267Z,7.53
2018-08-24T10:11:27.510Z,6.92
2018-08-24T10:13:55.740Z,5.87
2018-08-24T10:16:23.935Z,5.78
2018-08-24T10:18:52.152Z,5.90
2018-08-24T10:21:20.408Z,6.37
2018-08-24T10:23:48.631Z,6.12
2018-08-24T10:26:16.899Z,5.30
2018-08-24T10:28:45.169Z,5.25
2018-08-24T10:31:13.449Z,5.80
2018-08-24T10:33:41.665Z,5.03
2018-08-24T10:36:09.936Z,4.72
2018-08-24T10:38:38.152Z,4.42
2018-08-24T10:41:06.401Z,5.03
2018-08-24T10:43:34.693Z,4.80
2018-08-24T10:46:02.988Z,4.90
2018-08-24T10:48:31.251Z,5.22
2018-08-24T10:50:59.974Z,3.87
2018-08-24T10:53:28.241Z,4.65
2018-08-24T10:55:56.536Z,4.30
2018-08-24T10:58:24.755Z,4.40
2018-08-24T11:00:53.046Z,4.33
2018-08-24T11:03:21.287Z,4.67
2018-08-24T11:05:49.525Z,3.52
2018-08-24T11:08:17.748Z,3.37
2018-08-24T11:10:45.992Z,3.30
2018-08-24T11:13:14.272Z,3.45
2018-08-24T11:15:44.083Z,3.40
2018-08-24T11:18:12.587Z,3.52
2018-08-24T11:20:41.804Z,3.02
2018-08-24T11:23:10.143Z,3.17
2018-08-24T11:25:38.412Z,2.65
2018-08-24T11:28:06.841Z,3.42
2018-08-24T11:30:35.068Z,2.47
2018-08-24T11:33:04.534Z,2.42
2018-08-24T11:35:32.848Z,2.65
2018-08-24T11:38:01.280Z,3.42
2018-08-24T11:40:29.576Z,2.60
2018-08-24T11:42:57.840Z,2.98
2018-08-24T11:45:26.063Z,2.70
2018-08-24T11:47:54.358Z,2.20
2018-08-24T11:50:22.553Z,3.05
2018-08-24T11:52:50.764Z,2.70
2018-08-24T11:55:19.028Z,3.15
2018-08-24T11:57:47.280Z,2.87
2018-08-24T12:00:15.519Z,2.60
2018-08-24T12:02:43.731Z,2.85
2018-08-24T12:05:11.992Z,2.30
2018-08-24T12:07:40.235Z,2.55
2018-08-24T12:10:08.509Z,3.50
2018-08-24T12:12:36.815Z,2.10
2018-08-24T12:15:05.224Z,2.42
2018-08-24T12:17:36.285Z,2.55
2018-08-24T12:20:04.952Z,2.17
2018-08-24T12:22:33.228Z,2.15
2018-08-24T12:25:01.519Z,2.55
2018-08-24T12:27:29.820Z,2.40
2018-08-24T12:29:58.060Z,2.58
2018-08-24T12:32:26.289Z,2.00
2018-08-24T12:34:54.592Z,2.33
2018-08-24T12:37:23.420Z,2.17
2018-08-24T12:39:51.657Z,2.52
2018-08-24T12:42:19.929Z,1.98
2018-08-24T12:44:48.164Z,1.82
2018-08-24T12:47:16.408Z,1.55
2018-08-24T12:49:44.630Z,1.67
2018-08-24T12:52:12.927Z,1.60
2018-08-24T12:54:41.157Z,1.40
2018-08-24T12:57:09.403Z,1.85
2018-08-24T12:59:37.644Z,1.55
2018-08-24T13:02:05.895Z,1.30
2018-08-24T13:04:34.206Z,1.65
2018-08-24T13:07:02.524Z,1.32
2018-08-24T13:09:30.801Z,1.47
2018-08-24T13:11:59.098Z,1.50
2018-08-24T13:14:27.315Z,1.75
2018-08-24T13:16:55.563Z,2.25
2018-08-24T13:19:23.824Z,2.50
2018-08-24T13:21:52.593Z,2.58
2018-08-24T13:24:20.859Z,1.50
2018-08-24T13:26:49.075Z,1.90
2018-08-24T13:29:17.304Z,1.95
2018-08-24T13:31:45.557Z,1.98
2018-08-24T13:34:13.800Z,1.50
2018-08-24T13:36:42.118Z,1.72
2018-08-24T13:39:10.365Z,1.63
2018-08-24T13:41:38.825Z,2.52
2018-08-24T13:44:07.069Z,1.27
2018-08-24T13:46:35.348Z,1.40
2018-08-24T13:49:03.630Z,1.30
2018-08-24T13:51:31.873Z,1.55
2018-08-24T13:54:00.113Z,1.95
2018-08-24T13:56:28.397Z,1.65
2018-08-24T13:58:56.636Z,1.95
2018-08-24T14:01:24.850Z,1.92
2018-08-24T14:03:53.105Z,1.52
2018-08-24T14:06:21.316Z,1.70
2018-08-24T14:08:49.548Z,1.57
2018-08-24T14:11:18.204Z,1.40
2018-08-24T14:13:46.444Z,1.52
2018-08-24T14:16:14.692Z,1.65
2018-08-24T14:18:42.991Z,1.40
2018-08-24T14:21:11.224Z,1.47
2018-08-24T14:23:39.480Z,1.27
2018-08-24T14:26:07.712Z,1.30
2018-08-24T14:28:35.994Z,1.60
2018-08-24T14:31:04.398Z,1.50
2018-08-24T14:33:32.700Z,1.72
2018-08-24T14:36:01.018Z,1.67
2018-08-24T14:38:29.277Z,1.85
2018-08-24T14:40:57.504Z,1.80
2018-08-24T14:43:25.744Z,2.33
2018-08-24T14:45:53.963Z,2.00
2018-08-24T14:48:22.302Z,2.20
2018-08-24T14:50:50.628Z,1.75
2018-08-24T14:53:18.874Z,2.45
2018-08-24T14:55:47.107Z,1.87
2018-08-24T14:58:15.333Z,2.10
2018-08-24T15:00:43.553Z,1.87
2018-08-24T15:03:11.769Z,1.77
2018-08-24T15:05:40.041Z,1.87
2018-08-24T15:08:08.300Z,1.80
2018-08-24T15:10:36.532Z,1.67
2018-08-24T15:13:04.784Z,1.67
2018-08-24T15:15:33.106Z,1.57
2018-08-24T15:18:01.389Z,1.45
2018-08-24T15:20:29.642Z,1.65
2018-08-24T15:22:57.934Z,2.00
2018-08-24T15:25:26.208Z,1.70
2018-08-24T15:27:54.460Z,1.92
2018-08-24T15:30:22.745Z,1.60
2018-08-24T15:32:50.972Z,1.70
2018-08-24T15:35:19.261Z,1.93
2018-08-24T15:37:47.420Z,2.05
2018-08-24T15:40:15.664Z,1.47
2018-08-24T15:42:43.891Z,1.98
2018-08-24T15:45:12.153Z,1.90
2018-08-24T15:47:40.417Z,1.95
2018-08-24T15:50:08.704Z,1.90
2018-08-24T15:52:36.949Z,2.20
2018-08-24T15:55:05.430Z,1.87
2018-08-24T15:57:33.669Z,2.20
2018-08-24T16:00:02.009Z,1.92
2018-08-24T16:02:30.249Z,2.00
2018-08-24T16:04:58.545Z,1.90
2018-08-24T16:07:26.790Z,2.15
2018-08-24T16:09:55.048Z,1.87
2018-08-24T16:12:23.404Z,1.98
2018-08-24T16:14:51.580Z,1.92
2018-08-24T16:17:19.821Z,1.82
2018-08-24T16:19:48.096Z,1.70
2018-08-24T16:22:16.356Z,2.20
2018-08-24T16:24:44.663Z,1.92
2018-08-24T16:27:17.179Z,1.80
2018-08-24T16:29:45.442Z,2.27
2018-08-24T16:32:13.687Z,2.60
2018-08-24T16:34:41.995Z,2.15
2018-08-24T16:37:10.264Z,2.37
2018-08-24T16:39:38.520Z,2.27
2018-08-24T16:42:06.537Z,2.10
2018-08-24T16:44:34.975Z,2.03
2018-08-24T16:47:03.297Z,2.47
2018-08-24T16:49:31.553Z,2.00
2018-08-24T16:51:59.848Z,2.27
2018-08-24T16:54:28.100Z,2.75
2018-08-24T16:56:56.377Z,2.42
2018-08-24T16:59:25.097Z,2.58
2018-08-24T17:01:53.335Z,2.05
2018-08-24T17:04:21.627Z,1.75
2018-08-24T17:06:49.884Z,1.98
2018-08-24T17:09:18.143Z,4.23
2018-08-24T17:11:46.411Z,3.10
2018-08-24T17:14:14.652Z,3.00
2018-08-24T17:16:42.960Z,2.67
2018-08-24T17:19:11.249Z,2.47
2018-08-24T17:21:39.507Z,2.72
2018-08-24T17:24:07.768Z,2.25
2018-08-24T17:26:36.038Z,1.77
2018-08-24T17:29:05.244Z,2.37
2018-08-24T17:31:33.576Z,2.10
2018-08-24T17:34:02.083Z,2.90
2018-08-24T17:36:30.449Z,2.40
2018-08-24T17:38:58.741Z,1.75
2018-08-24T17:41:27.033Z,1.85
2018-08-24T17:43:55.321Z,1.93
2018-08-24T17:46:23.648Z,1.40
2018-08-24T17:48:51.961Z,1.93
2018-08-24T17:51:20.233Z,1.93
2018-08-24T17:53:48.546Z,3.90
2018-08-24T17:56:17.183Z,2.10
2018-08-24T17:58:45.473Z,2.25
2018-08-24T18:01:13.857Z,2.58
2018-08-24T18:03:42.151Z,2.50
2018-08-24T18:06:10.454Z,2.03
2018-08-24T18:08:38.786Z,2.30
2018-08-24T18:11:07.076Z,2.42
2018-08-24T18:13:35.393Z,3.08
2018-08-24T18:16:04.059Z,2.42
2018-08-24T18:18:32.499Z,2.40
2018-08-24T18:21:01.072Z,2.33
2018-08-24T18:23:29.349Z,2.10
2018-08-24T18:25:57.623Z,2.40
2018-08-24T18:28:25.949Z,2.90
2018-08-24T18:30:54.259Z,2.37
2018-08-24T18:33:22.550Z,2.43
2018-08-24T18:35:51.120Z,2.67
2018-08-24T18:38:19.481Z,2.40
2018-08-24T18:40:47.868Z,2.60
2018-08-24T18:43:16.163Z,2.60
2018-08-24T18:45:45.524Z,2.60
2018-08-24T18:48:14.247Z,2.60
2018-08-24T18:50:42.607Z,2.90
2018-08-24T18:53:10.909Z,3.27
2018-08-24T18:55:39.240Z,2.73
2018-08-24T18:58:07.593Z,2.50
2018-08-24T19:00:35.904Z,3.10
2018-08-24T19:03:05.009Z,3.12
2018-08-24T19:05:33.539Z,3.00
2018-08-24T19:08:07.257Z,2.60
2018-08-24T19:10:40.884Z,2.90
2018-08-24T19:13:09.348Z,3.17
2018-08-24T19:15:38.290Z,2.87
2018-08-24T19:18:12.043Z,2.80
2018-08-24T19:20:45.697Z,3.60
2018-08-24T19:23:15.560Z,3.50
2018-08-24T19:25:44.372Z,3.50
2018-08-24T19:28:18.069Z,3.75
2018-08-24T19:30:46.377Z,3.03
2018-08-24T19:33:14.683Z,2.90
2018-08-24T19:35:43.016Z,3.20
2018-08-24T19:38:11.319Z,3.03
2018-08-24T19:40:44.960Z,3.23
2018-08-24T19:43:13.321Z,3.98
2018-08-24T19:45:42.313Z,3.50
2018-08-24T19:48:16.043Z,3.80
2018-08-24T19:50:44.679Z,3.93
2018-08-24T19:53:12.992Z,3.33
2018-08-24T19:55:41.397Z,3.85
2018-08-24T19:58:15.513Z,3.67
2018-08-24T20:00:43.823Z,3.10
2018-08-24T20:03:13.000Z,3.70
2018-08-24T20:05:41.338Z,3.17
2018-08-24T20:08:15.764Z,3.53
2018-08-24T20:10:44.071Z,3.40
2018-08-24T20:13:12.477Z,10.95
2018-08-24T20:15:45.916Z,4.47
2018-08-24T20:18:14.211Z,5.17
2018-08-24T20:20:42.504Z,3.90
2018-08-24T20:23:10.798Z,3.65
2018-08-24T20:25:39.073Z,3.50
2018-08-24T20:28:07.732Z,3.53
2018-08-24T20:30:36.352Z,3.30
2018-08-24T20:33:04.897Z,3.50
2018-08-24T20:35:33.326Z,3.70
2018-08-24T20:38:01.875Z,3.27
2018-08-24T20:40:30.168Z,3.10
2018-08-24T20:42:58.468Z,2.97
2018-08-24T20:45:27.067Z,3.00
2018-08-24T20:47:55.391Z,3.77
2018-08-24T20:50:24.655Z,3.08
2018-08-24T20:52:53.048Z,2.63
2018-08-24T20:55:22.334Z,2.43
2018-08-24T20:57:50.779Z,2.65
2018-08-24T21:00:19.055Z,2.80
2018-08-24T21:02:47.362Z,2.53
2018-08-24T21:05:15.995Z,2.77
2018-08-24T21:07:44.274Z,2.70
2018-08-24T21:10:12.696Z,2.53
2018-08-24T21:12:41.195Z,2.00
2018-08-24T21:15:09.474Z,2.87
2018-08-24T21:17:37.765Z,2.97
2018-08-24T21:20:06.238Z,2.70
2018-08-24T21:22:34.535Z,2.53
2018-08-24T21:25:02.904Z,2.10
2018-08-24T21:27:31.158Z,2.93
2018-08-24T21:29:59.440Z,2.40
2018-08-24T21:32:27.687Z,2.80
2018-08-24T21:34:55.924Z,2.67
2018-08-24T21:37:24.208Z,2.60
2018-08-24T21:39:52.438Z,2.77
2018-08-24T21:42:20.698Z,2.87
2018-08-24T21:44:49.177Z,3.07
2018-08-24T21:47:17.423Z,3.50
2018-08-24T21:49:45.742Z,3.43
2018-08-24T21:52:14.172Z,3.30
2018-08-24T21:54:42.405Z,2.93
2018-08-24T21:57:10.631Z,3.07
2018-08-24T21:59:38.881Z,3.00
2018-08-24T22:02:07.460Z,3.30
2018-08-24T22:04:35.713Z,3.03
2018-08-24T22:07:03.977Z,3.43
2018-08-24T22:09:32.259Z,3.40
2018-08-24T22:12:00.549Z,3.73
2018-08-24T22:14:28.771Z,2.97
2018-08-24T22:16:57.103Z,3.23
2018-08-24T22:19:25.287Z,3.85
2018-08-24T22:21:53.516Z,2.83
2018-08-24T22:24:21.768Z,3.20
2018-08-24T22:26:49.984Z,3.70
2018-08-24T22:29:18.232Z,3.87
2018-08-24T22:31:46.465Z,3.83
2018-08-24T22:34:14.718Z,4.00
2018-08-24T22:36:42.945Z,4.20
2018-08-24T22:39:11.511Z,3.70
2018-08-24T22:41:39.741Z,3.83
2018-08-24T22:44:07.975Z,4.37
2018-08-24T22:46:36.248Z,3.97
2018-08-24T22:49:04.544Z,4.07
2018-08-24T22:51:39.269Z,3.87
2018-08-24T22:54:07.515Z,3.97
2018-08-24T22:56:35.772Z,4.43
2018-08-24T22:59:04.664Z,4.13
2018-08-24T23:01:32.967Z,4.30
2018-08-24T23:04:01.409Z,3.70
2018-08-24T23:06:29.699Z,4.10
2018-08-24T23:08:57.915Z,4.20
2018-08-24T23:11:26.173Z,4.13
2018-08-24T23:13:54.531Z,3.80
2018-08-24T23:16:22.753Z,3.80
2018-08-24T23:18:50.993Z,3.60
2018-08-24T23:21:19.332Z,4.07
2018-08-24T23:23:47.580Z,4.23
2018-08-24T23:26:15.813Z,3.70
2018-08-24T23:28:44.023Z,4.00
2018-08-24T23:31:12.279Z,3.75
2018-08-24T23:33:40.532Z,3.53
2018-08-24T23:36:08.775Z,3.70
2018-08-24T23:38:37.018Z,3.50
2018-08-24T23:41:05.736Z,3.80
2018-08-24T23:43:34.024Z,3.87
2018-08-24T23:46:02.318Z,3.53
2018-08-24T23:48:30.544Z,3.50
2018-08-24T23:50:58.769Z,3.83
2018-08-24T23:53:27.106Z,3.83
2018-08-24T23:55:55.390Z,3.20
2018-08-24T23:58:23.600Z,3.30
